Ayer, MA (01432)

3:52 PM EST on February 09, 2016 (GMT -0500)
Ayer Center | | Change Station
CLOSE
Current Station
Personal Weather Station
Location: Ayer, MA
Elevation: 230 ft
Nearby Weather Stations

Elev 230 ft 42.56 °N, 71.59 °W | Updated 2 seconds ago

Scattered Clouds
Scattered Clouds
28.0 °F
Feels Like 28 °F
N
0.0
Wind Variable Wind from SW
Gusts 0.0 mph

Today
High -- | Low -- °F
--% Chance of Precip.
Yesterday
High -- | Low -- °F
Precip. -- in
Pressure 29.58 in
Visibility 10.0 miles
Clouds Scattered Clouds 2700 ft
Windchill 28 °F
Dew Point 12 °F
Humidity 50%
Rainfall 0.00 in
Snow Depth Not available.
6:51 AM 5:09 PM
New Moon, 2% visible
SPECI KFIT 092029Z AUTO 35003KT 10SM SCT027 M02/M09 A2958 RMK AO2 T10221094
Pressure 29.58 in
Visibility 10.0 miles
Clouds Scattered Clouds 2700 ft
Windchill 28 °F
Dew Point 12 °F
Humidity 50%
Rainfall 0.00 in
Snow Depth Not available.
6:51 AM 5:09 PM
New Moon, 2% visible
SPECI KFIT 092029Z AUTO 35003KT 10SM SCT027 M02/M09 A2958 RMK AO2 T10221094

10-Day Weather Forecast

Almanac

Astronomy

Feb. 09, 2016 Rise Set
Actual Time
Civil Twilight
Nautical Twilight
Astronomical Twilight
Moon
Length of Visible Light
Length of Day
Tomorrow will be .
, % of the Moon is Illuminated

Today's Extremes

State Highs State Lows

Community

WunderPhotos

Upload Photos

1,891,683 photos uploaded!

WunderBlog® & News

Nearby

Air Quality

  Air Quality AQ Index Pollutant
Not available.

Snow Depth

Station Depth Elevation

Earthquake Activity

City Distance Mag. Time & Date
Minimum magnitude displayed is 2.5.

Coastal Water Temperatures

Place Temperature

Stations

Nearby Weather Stations

Station Location Temp. Windchill Dew Point Humidity Wind Precip. Elev Updated Type
                   

Watches & Warnings

There are currently no watches in effect.